sensor_id;sensor_type;location;lat;lon;timestamp;temperature;humidity
46754;DHT22;32500;50.620;3.400;2022-08-05T00:01:23;27.00;57.40
46754;DHT22;32500;50.620;3.400;2022-08-05T00:03:49;27.00;57.60
46754;DHT22;32500;50.620;3.400;2022-08-05T00:06:15;27.00;57.70
46754;DHT22;32500;50.620;3.400;2022-08-05T00:08:41;27.00;57.60
46754;DHT22;32500;50.620;3.400;2022-08-05T00:11:10;27.00;57.50
46754;DHT22;32500;50.620;3.400;2022-08-05T00:13:37;27.00;57.60
46754;DHT22;32500;50.620;3.400;2022-08-05T00:16:04;27.00;57.60
46754;DHT22;32500;50.620;3.400;2022-08-05T00:18:30;27.00;57.60
46754;DHT22;32500;50.620;3.400;2022-08-05T00:20:56;27.00;57.70
46754;DHT22;32500;50.620;3.400;2022-08-05T00:23:22;27.00;57.70
46754;DHT22;32500;50.620;3.400;2022-08-05T00:25:49;27.00;57.70
46754;DHT22;32500;50.620;3.400;2022-08-05T00:28:15;27.00;57.80
46754;DHT22;32500;50.620;3.400;2022-08-05T00:30:41;27.00;57.80
46754;DHT22;32500;50.620;3.400;2022-08-05T00:33:07;27.00;57.90
46754;DHT22;32500;50.620;3.400;2022-08-05T00:35:33;27.00;57.90
46754;DHT22;32500;50.620;3.400;2022-08-05T00:37:59;27.00;57.90
46754;DHT22;32500;50.620;3.400;2022-08-05T00:40:26;27.00;57.80
46754;DHT22;32500;50.620;3.400;2022-08-05T00:42:52;27.00;57.70
46754;DHT22;32500;50.620;3.400;2022-08-05T00:45:18;27.00;57.90
46754;DHT22;32500;50.620;3.400;2022-08-05T00:47:43;27.00;58.40
46754;DHT22;32500;50.620;3.400;2022-08-05T00:50:09;26.90;57.80
46754;DHT22;32500;50.620;3.400;2022-08-05T00:52:35;27.00;58.00
46754;DHT22;32500;50.620;3.400;2022-08-05T00:55:01;27.00;58.10
46754;DHT22;32500;50.620;3.400;2022-08-05T00:57:26;27.00;58.00
46754;DHT22;32500;50.620;3.400;2022-08-05T00:59:52;27.00;58.00
46754;DHT22;32500;50.620;3.400;2022-08-05T01:02:18;27.00;57.90
46754;DHT22;32500;50.620;3.400;2022-08-05T01:04:43;27.00;58.20
46754;DHT22;32500;50.620;3.400;2022-08-05T01:07:09;27.00;58.10
46754;DHT22;32500;50.620;3.400;2022-08-05T01:09:35;27.00;58.20
46754;DHT22;32500;50.620;3.400;2022-08-05T01:12:07;27.00;58.10
46754;DHT22;32500;50.620;3.400;2022-08-05T01:14:50;27.00;58.20
46754;DHT22;32500;50.620;3.400;2022-08-05T01:17:27;26.90;58.20
46754;DHT22;32500;50.620;3.400;2022-08-05T01:20:15;26.90;58.10
46754;DHT22;32500;50.620;3.400;2022-08-05T01:25:38;26.80;58.30
46754;DHT22;32500;50.620;3.400;2022-08-05T01:28:12;26.80;58.40
46754;DHT22;32500;50.620;3.400;2022-08-05T01:30:46;26.80;58.40
46754;DHT22;32500;50.620;3.400;2022-08-05T01:33:16;26.80;58.30
46754;DHT22;32500;50.620;3.400;2022-08-05T01:35:44;26.90;58.40
46754;DHT22;32500;50.620;3.400;2022-08-05T01:38:12;26.80;58.40
46754;DHT22;32500;50.620;3.400;2022-08-05T01:40:40;26.80;58.30
46754;DHT22;32500;50.620;3.400;2022-08-05T01:43:07;26.80;58.40
46754;DHT22;32500;50.620;3.400;2022-08-05T01:45:34;26.80;58.60
46754;DHT22;32500;50.620;3.400;2022-08-05T01:48:00;26.80;58.40
46754;DHT22;32500;50.620;3.400;2022-08-05T01:50:31;26.80;58.50
46754;DHT22;32500;50.620;3.400;2022-08-05T01:53:00;26.80;58.50
46754;DHT22;32500;50.620;3.400;2022-08-05T01:55:27;26.80;59.00
46754;DHT22;32500;50.620;3.400;2022-08-05T01:57:56;26.80;58.40
46754;DHT22;32500;50.620;3.400;2022-08-05T02:00:23;26.80;58.40
46754;DHT22;32500;50.620;3.400;2022-08-05T02:03:02;26.80;58.30
46754;DHT22;32500;50.620;3.400;2022-08-05T02:05:30;26.80;58.40
46754;DHT22;32500;50.620;3.400;2022-08-05T02:07:58;26.80;58.40
46754;DHT22;32500;50.620;3.400;2022-08-05T02:10:25;26.80;58.30
46754;DHT22;32500;50.620;3.400;2022-08-05T02:12:55;26.80;58.30
46754;DHT22;32500;50.620;3.400;2022-08-05T02:15:37;26.80;58.40
46754;DHT22;32500;50.620;3.400;2022-08-05T02:18:22;26.80;58.60
46754;DHT22;32500;50.620;3.400;2022-08-05T02:20:55;26.80;58.60
46754;DHT22;32500;50.620;3.400;2022-08-05T02:23:25;26.80;58.40
46754;DHT22;32500;50.620;3.400;2022-08-05T02:25:54;26.80;58.40
46754;DHT22;32500;50.620;3.400;2022-08-05T02:28:27;26.80;58.40
46754;DHT22;32500;50.620;3.400;2022-08-05T02:30:57;26.80;58.40
46754;DHT22;32500;50.620;3.400;2022-08-05T02:33:24;26.80;58.40
46754;DHT22;32500;50.620;3.400;2022-08-05T02:35:52;26.70;58.40
46754;DHT22;32500;50.620;3.400;2022-08-05T02:38:21;26.70;58.30
46754;DHT22;32500;50.620;3.400;2022-08-05T02:40:47;26.70;59.10
46754;DHT22;32500;50.620;3.400;2022-08-05T02:43:14;26.70;58.50
46754;DHT22;32500;50.620;3.400;2022-08-05T02:45:41;26.70;58.40
46754;DHT22;32500;50.620;3.400;2022-08-05T02:48:08;26.80;58.50
46754;DHT22;32500;50.620;3.400;2022-08-05T02:50:35;26.80;58.40
46754;DHT22;32500;50.620;3.400;2022-08-05T02:53:01;26.80;58.50
46754;DHT22;32500;50.620;3.400;2022-08-05T02:55:29;26.70;58.40
46754;DHT22;32500;50.620;3.400;2022-08-05T02:57:56;26.80;58.50
46754;DHT22;32500;50.620;3.400;2022-08-05T03:00:23;26.70;58.40
46754;DHT22;32500;50.620;3.400;2022-08-05T03:02:49;26.70;58.50
46754;DHT22;32500;50.620;3.400;2022-08-05T03:05:16;26.60;58.40
46754;DHT22;32500;50.620;3.400;2022-08-05T03:07:43;26.60;58.50
46754;DHT22;32500;50.620;3.400;2022-08-05T03:10:09;26.50;58.50
46754;DHT22;32500;50.620;3.400;2022-08-05T03:12:37;26.50;58.50
46754;DHT22;32500;50.620;3.400;2022-08-05T03:15:05;26.50;58.50
46754;DHT22;32500;50.620;3.400;2022-08-05T03:17:31;26.60;58.60
46754;DHT22;32500;50.620;3.400;2022-08-05T03:19:57;26.60;58.60
46754;DHT22;32500;50.620;3.400;2022-08-05T03:22:23;26.50;58.50
46754;DHT22;32500;50.620;3.400;2022-08-05T03:24:50;26.50;58.50
46754;DHT22;32500;50.620;3.400;2022-08-05T03:27:16;26.50;58.50
46754;DHT22;32500;50.620;3.400;2022-08-05T03:29:42;26.50;58.50
46754;DHT22;32500;50.620;3.400;2022-08-05T03:32:08;26.50;58.50
46754;DHT22;32500;50.620;3.400;2022-08-05T03:34:35;26.50;58.60
46754;DHT22;32500;50.620;3.400;2022-08-05T03:37:02;26.50;58.70
46754;DHT22;32500;50.620;3.400;2022-08-05T03:39:28;26.40;58.50
46754;DHT22;32500;50.620;3.400;2022-08-05T03:41:54;26.50;58.60
46754;DHT22;32500;50.620;3.400;2022-08-05T03:44:20;26.40;58.70
46754;DHT22;32500;50.620;3.400;2022-08-05T03:46:46;26.40;58.70
46754;DHT22;32500;50.620;3.400;2022-08-05T03:49:12;26.40;58.70
46754;DHT22;32500;50.620;3.400;2022-08-05T03:51:50;26.40;58.50
46754;DHT22;32500;50.620;3.400;2022-08-05T03:54:32;26.40;58.70
46754;DHT22;32500;50.620;3.400;2022-08-05T03:56:59;26.40;58.70
46754;DHT22;32500;50.620;3.400;2022-08-05T03:59:32;26.30;58.70
46754;DHT22;32500;50.620;3.400;2022-08-05T04:02:00;26.40;58.80
46754;DHT22;32500;50.620;3.400;2022-08-05T04:04:26;26.30;58.80
46754;DHT22;32500;50.620;3.400;2022-08-05T04:06:53;26.30;58.70
46754;DHT22;32500;50.620;3.400;2022-08-05T04:09:20;26.40;58.70
46754;DHT22;32500;50.620;3.400;2022-08-05T04:11:46;26.30;58.70
46754;DHT22;32500;50.620;3.400;2022-08-05T04:14:11;26.30;58.70
46754;DHT22;32500;50.620;3.400;2022-08-05T04:16:37;26.30;58.70
46754;DHT22;32500;50.620;3.400;2022-08-05T04:19:03;26.30;58.70
46754;DHT22;32500;50.620;3.400;2022-08-05T04:21:29;26.30;58.60
46754;DHT22;32500;50.620;3.400;2022-08-05T04:23:56;26.30;58.60
46754;DHT22;32500;50.620;3.400;2022-08-05T04:26:23;26.30;58.80
46754;DHT22;32500;50.620;3.400;2022-08-05T04:28:49;26.20;58.80
46754;DHT22;32500;50.620;3.400;2022-08-05T04:31:14;26.20;58.80
46754;DHT22;32500;50.620;3.400;2022-08-05T04:33:40;26.30;58.60
46754;DHT22;32500;50.620;3.400;2022-08-05T04:36:06;26.20;58.70
46754;DHT22;32500;50.620;3.400;2022-08-05T04:38:35;26.20;58.70
46754;DHT22;32500;50.620;3.400;2022-08-05T04:41:01;26.20;58.70
46754;DHT22;32500;50.620;3.400;2022-08-05T04:43:26;26.20;58.60
46754;DHT22;32500;50.620;3.400;2022-08-05T04:45:52;26.20;58.60
46754;DHT22;32500;50.620;3.400;2022-08-05T04:48:18;26.20;58.60
46754;DHT22;32500;50.620;3.400;2022-08-05T04:50:45;26.20;58.50
46754;DHT22;32500;50.620;3.400;2022-08-05T04:53:12;26.20;58.70
46754;DHT22;32500;50.620;3.400;2022-08-05T04:55:39;26.20;58.60
46754;DHT22;32500;50.620;3.400;2022-08-05T04:58:06;26.20;58.70
46754;DHT22;32500;50.620;3.400;2022-08-05T05:00:33;26.20;58.50
46754;DHT22;32500;50.620;3.400;2022-08-05T05:02:59;26.10;58.90
46754;DHT22;32500;50.620;3.400;2022-08-05T05:05:25;26.10;58.60
46754;DHT22;32500;50.620;3.400;2022-08-05T05:07:51;26.10;58.70
46754;DHT22;32500;50.620;3.400;2022-08-05T05:10:17;26.10;58.60
46754;DHT22;32500;50.620;3.400;2022-08-05T05:12:43;26.10;58.80
46754;DHT22;32500;50.620;3.400;2022-08-05T05:15:09;26.10;58.60
46754;DHT22;32500;50.620;3.400;2022-08-05T05:17:42;26.10;58.40
46754;DHT22;32500;50.620;3.400;2022-08-05T05:20:12;26.20;58.70
46754;DHT22;32500;50.620;3.400;2022-08-05T05:22:39;26.10;58.50
46754;DHT22;32500;50.620;3.400;2022-08-05T05:25:06;26.10;58.60
46754;DHT22;32500;50.620;3.400;2022-08-05T05:27:33;26.10;58.70
46754;DHT22;32500;50.620;3.400;2022-08-05T05:29:58;26.10;58.50
46754;DHT22;32500;50.620;3.400;2022-08-05T05:32:24;26.10;58.40
46754;DHT22;32500;50.620;3.400;2022-08-05T05:34:50;26.10;58.30
46754;DHT22;32500;50.620;3.400;2022-08-05T05:37:15;26.10;58.50
46754;DHT22;32500;50.620;3.400;2022-08-05T05:39:42;26.10;58.30
46754;DHT22;32500;50.620;3.400;2022-08-05T05:42:07;26.10;58.50
46754;DHT22;32500;50.620;3.400;2022-08-05T05:44:33;26.10;58.60
46754;DHT22;32500;50.620;3.400;2022-08-05T05:46:59;26.10;58.50
46754;DHT22;32500;50.620;3.400;2022-08-05T05:49:25;26.10;58.60
46754;DHT22;32500;50.620;3.400;2022-08-05T05:51:51;26.10;58.60
46754;DHT22;32500;50.620;3.400;2022-08-05T05:54:17;26.10;58.20
46754;DHT22;32500;50.620;3.400;2022-08-05T05:56:43;26.10;57.90
46754;DHT22;32500;50.620;3.400;2022-08-05T05:59:08;26.10;58.60
46754;DHT22;32500;50.620;3.400;2022-08-05T06:01:36;26.00;58.50
46754;DHT22;32500;50.620;3.400;2022-08-05T06:04:02;26.00;58.70
46754;DHT22;32500;50.620;3.400;2022-08-05T06:06:28;26.10;58.50
46754;DHT22;32500;50.620;3.400;2022-08-05T06:08:53;26.10;58.20
46754;DHT22;32500;50.620;3.400;2022-08-05T06:11:19;26.10;58.20
46754;DHT22;32500;50.620;3.400;2022-08-05T06:13:45;26.10;58.30
46754;DHT22;32500;50.620;3.400;2022-08-05T06:16:10;26.10;58.10
46754;DHT22;32500;50.620;3.400;2022-08-05T06:18:36;26.10;58.10
46754;DHT22;32500;50.620;3.400;2022-08-05T06:21:04;26.10;57.80
46754;DHT22;32500;50.620;3.400;2022-08-05T06:23:30;26.10;57.70
46754;DHT22;32500;50.620;3.400;2022-08-05T06:25:56;26.00;58.20
46754;DHT22;32500;50.620;3.400;2022-08-05T06:28:22;26.10;58.00
46754;DHT22;32500;50.620;3.400;2022-08-05T06:30:47;26.10;58.30
46754;DHT22;32500;50.620;3.400;2022-08-05T06:33:13;26.10;58.50
46754;DHT22;32500;50.620;3.400;2022-08-05T06:35:38;26.10;58.50
46754;DHT22;32500;50.620;3.400;2022-08-05T06:38:04;26.10;58.60
46754;DHT22;32500;50.620;3.400;2022-08-05T06:40:30;26.10;58.50
46754;DHT22;32500;50.620;3.400;2022-08-05T06:42:56;26.10;57.30
46754;DHT22;32500;50.620;3.400;2022-08-05T06:45:22;25.80;55.70
46754;DHT22;32500;50.620;3.400;2022-08-05T06:47:48;25.70;55.70
46754;DHT22;32500;50.620;3.400;2022-08-05T06:50:13;25.60;55.40
46754;DHT22;32500;50.620;3.400;2022-08-05T06:52:39;25.50;55.50
46754;DHT22;32500;50.620;3.400;2022-08-05T06:55:05;25.30;55.70
46754;DHT22;32500;50.620;3.400;2022-08-05T06:57:31;25.20;55.60
46754;DHT22;32500;50.620;3.400;2022-08-05T06:59:57;25.10;55.80
46754;DHT22;32500;50.620;3.400;2022-08-05T07:02:23;25.00;55.70
46754;DHT22;32500;50.620;3.400;2022-08-05T07:04:48;24.90;56.00
46754;DHT22;32500;50.620;3.400;2022-08-05T07:07:14;24.80;56.10
46754;DHT22;32500;50.620;3.400;2022-08-05T07:09:40;24.70;56.10
46754;DHT22;32500;50.620;3.400;2022-08-05T07:12:06;24.80;56.20
46754;DHT22;32500;50.620;3.400;2022-08-05T07:14:31;24.80;56.50
46754;DHT22;32500;50.620;3.400;2022-08-05T07:17:16;24.70;56.50
46754;DHT22;32500;50.620;3.400;2022-08-05T07:19:41;24.70;56.80
46754;DHT22;32500;50.620;3.400;2022-08-05T07:22:07;24.80;57.00
46754;DHT22;32500;50.620;3.400;2022-08-05T07:24:33;24.80;56.80
46754;DHT22;32500;50.620;3.400;2022-08-05T07:26:58;24.80;56.60
46754;DHT22;32500;50.620;3.400;2022-08-05T07:29:24;24.80;56.40
46754;DHT22;32500;50.620;3.400;2022-08-05T07:31:49;24.80;56.20
46754;DHT22;32500;50.620;3.400;2022-08-05T07:34:15;24.80;56.40
46754;DHT22;32500;50.620;3.400;2022-08-05T07:36:41;24.70;56.30
46754;DHT22;32500;50.620;3.400;2022-08-05T07:39:08;24.70;56.00
46754;DHT22;32500;50.620;3.400;2022-08-05T07:41:34;24.70;56.10
46754;DHT22;32500;50.620;3.400;2022-08-05T07:44:01;24.70;56.10
46754;DHT22;32500;50.620;3.400;2022-08-05T07:46:29;24.80;55.80
46754;DHT22;32500;50.620;3.400;2022-08-05T07:48:57;24.80;55.70
46754;DHT22;32500;50.620;3.400;2022-08-05T07:51:23;25.00;55.70
46754;DHT22;32500;50.620;3.400;2022-08-05T07:53:48;25.20;55.90
46754;DHT22;32500;50.620;3.400;2022-08-05T07:56:14;25.30;55.80
46754;DHT22;32500;50.620;3.400;2022-08-05T07:58:39;25.30;55.20
46754;DHT22;32500;50.620;3.400;2022-08-05T08:01:05;25.20;55.10
46754;DHT22;32500;50.620;3.400;2022-08-05T08:03:31;25.20;55.20
46754;DHT22;32500;50.620;3.400;2022-08-05T08:05:57;25.20;54.90
46754;DHT22;32500;50.620;3.400;2022-08-05T08:08:22;25.20;54.60
46754;DHT22;32500;50.620;3.400;2022-08-05T08:10:48;25.20;54.50
46754;DHT22;32500;50.620;3.400;2022-08-05T08:13:13;25.30;54.50
46754;DHT22;32500;50.620;3.400;2022-08-05T08:15:39;25.30;54.30
46754;DHT22;32500;50.620;3.400;2022-08-05T08:18:05;25.20;54.30
46754;DHT22;32500;50.620;3.400;2022-08-05T08:20:31;25.20;54.40
46754;DHT22;32500;50.620;3.400;2022-08-05T08:22:57;25.20;54.50
46754;DHT22;32500;50.620;3.400;2022-08-05T08:25:24;25.30;54.40
46754;DHT22;32500;50.620;3.400;2022-08-05T08:27:50;25.40;54.70
46754;DHT22;32500;50.620;3.400;2022-08-05T08:30:16;25.60;54.40
46754;DHT22;32500;50.620;3.400;2022-08-05T08:32:42;25.60;54.30
46754;DHT22;32500;50.620;3.400;2022-08-05T08:35:08;25.60;54.10
46754;DHT22;32500;50.620;3.400;2022-08-05T08:37:34;25.60;54.30
46754;DHT22;32500;50.620;3.400;2022-08-05T08:39:59;25.60;53.50
46754;DHT22;32500;50.620;3.400;2022-08-05T08:42:26;25.60;53.20
46754;DHT22;32500;50.620;3.400;2022-08-05T08:44:54;25.60;53.30
46754;DHT22;32500;50.620;3.400;2022-08-05T08:47:24;25.60;53.40
46754;DHT22;32500;50.620;3.400;2022-08-05T08:49:54;25.60;53.30
46754;DHT22;32500;50.620;3.400;2022-08-05T08:52:31;25.80;52.80
46754;DHT22;32500;50.620;3.400;2022-08-05T08:54:58;25.80;53.20
46754;DHT22;32500;50.620;3.400;2022-08-05T08:57:24;25.80;52.70
46754;DHT22;32500;50.620;3.400;2022-08-05T08:59:54;25.80;52.70
46754;DHT22;32500;50.620;3.400;2022-08-05T09:02:23;25.90;52.30
46754;DHT22;32500;50.620;3.400;2022-08-05T09:04:49;25.90;51.90
46754;DHT22;32500;50.620;3.400;2022-08-05T09:07:15;25.80;51.70
46754;DHT22;32500;50.620;3.400;2022-08-05T09:09:41;25.80;51.70
46754;DHT22;32500;50.620;3.400;2022-08-05T09:12:09;25.80;52.00
46754;DHT22;32500;50.620;3.400;2022-08-05T09:14:35;25.90;51.30
46754;DHT22;32500;50.620;3.400;2022-08-05T09:17:04;25.80;50.80
46754;DHT22;32500;50.620;3.400;2022-08-05T09:19:30;25.90;50.20
46754;DHT22;32500;50.620;3.400;2022-08-05T09:21:56;25.90;50.10
46754;DHT22;32500;50.620;3.400;2022-08-05T09:24:22;25.90;49.70
46754;DHT22;32500;50.620;3.400;2022-08-05T09:26:51;25.90;49.90
46754;DHT22;32500;50.620;3.400;2022-08-05T09:29:17;25.90;49.60
46754;DHT22;32500;50.620;3.400;2022-08-05T09:31:43;25.90;49.80
46754;DHT22;32500;50.620;3.400;2022-08-05T09:34:24;25.90;49.80
46754;DHT22;32500;50.620;3.400;2022-08-05T09:36:50;25.90;50.30
46754;DHT22;32500;50.620;3.400;2022-08-05T09:39:18;25.90;50.90
46754;DHT22;32500;50.620;3.400;2022-08-05T09:42:00;25.90;50.80
46754;DHT22;32500;50.620;3.400;2022-08-05T09:44:44;25.80;51.10
46754;DHT22;32500;50.620;3.400;2022-08-05T09:47:12;25.80;51.30
46754;DHT22;32500;50.620;3.400;2022-08-05T09:52:32;25.90;51.20
46754;DHT22;32500;50.620;3.400;2022-08-05T09:55:05;25.80;51.50
46754;DHT22;32500;50.620;3.400;2022-08-05T09:57:49;25.90;50.80
46754;DHT22;32500;50.620;3.400;2022-08-05T10:00:19;25.90;50.20
46754;DHT22;32500;50.620;3.400;2022-08-05T10:02:50;26.00;49.80
46754;DHT22;32500;50.620;3.400;2022-08-05T10:05:17;25.90;49.90
46754;DHT22;32500;50.620;3.400;2022-08-05T10:07:57;26.00;50.00
46754;DHT22;32500;50.620;3.400;2022-08-05T10:13:09;26.00;49.90
46754;DHT22;32500;50.620;3.400;2022-08-05T10:15:39;26.10;49.50
46754;DHT22;32500;50.620;3.400;2022-08-05T10:18:15;26.00;50.40
46754;DHT22;32500;50.620;3.400;2022-08-05T10:23:12;26.00;50.80
46754;DHT22;32500;50.620;3.400;2022-08-05T10:25:38;26.00;50.20
46754;DHT22;32500;50.620;3.400;2022-08-05T10:28:05;26.00;49.90
46754;DHT22;32500;50.620;3.400;2022-08-05T10:30:31;26.00;49.90
46754;DHT22;32500;50.620;3.400;2022-08-05T10:32:58;26.00;49.90
46754;DHT22;32500;50.620;3.400;2022-08-05T10:35:25;26.00;50.10
46754;DHT22;32500;50.620;3.400;2022-08-05T10:37:52;26.10;49.80
46754;DHT22;32500;50.620;3.400;2022-08-05T10:42:53;26.10;48.40
46754;DHT22;32500;50.620;3.400;2022-08-05T10:45:28;26.10;48.80
46754;DHT22;32500;50.620;3.400;2022-08-05T10:47:55;26.00;48.30
46754;DHT22;32500;50.620;3.400;2022-08-05T10:50:21;26.00;49.00
46754;DHT22;32500;50.620;3.400;2022-08-05T10:52:50;26.00;48.70
46754;DHT22;32500;50.620;3.400;2022-08-05T10:55:24;25.80;48.60
46754;DHT22;32500;50.620;3.400;2022-08-05T10:58:09;25.70;49.00
46754;DHT22;32500;50.620;3.400;2022-08-05T11:00:36;25.60;49.30
46754;DHT22;32500;50.620;3.400;2022-08-05T11:05:32;25.60;49.50
46754;DHT22;32500;50.620;3.400;2022-08-05T11:08:01;25.60;49.30
46754;DHT22;32500;50.620;3.400;2022-08-05T11:10:30;25.60;49.20
46754;DHT22;32500;50.620;3.400;2022-08-05T11:12:57;25.70;49.20
46754;DHT22;32500;50.620;3.400;2022-08-05T11:15:26;25.80;49.00
46754;DHT22;32500;50.620;3.400;2022-08-05T11:18:12;25.70;48.70
46754;DHT22;32500;50.620;3.400;2022-08-05T11:20:48;25.70;48.70
46754;DHT22;32500;50.620;3.400;2022-08-05T11:26:31;25.60;48.50
46754;DHT22;32500;50.620;3.400;2022-08-05T11:28:57;25.70;48.40
46754;DHT22;32500;50.620;3.400;2022-08-05T11:31:25;25.70;48.40
46754;DHT22;32500;50.620;3.400;2022-08-05T11:34:00;25.70;48.30
46754;DHT22;32500;50.620;3.400;2022-08-05T11:39:09;25.80;48.10
46754;DHT22;32500;50.620;3.400;2022-08-05T11:41:36;25.80;47.80
46754;DHT22;32500;50.620;3.400;2022-08-05T11:44:20;25.80;47.80
46754;DHT22;32500;50.620;3.400;2022-08-05T11:46:51;25.90;47.70
46754;DHT22;32500;50.620;3.400;2022-08-05T11:49:21;25.90;47.20
46754;DHT22;32500;50.620;3.400;2022-08-05T11:51:50;25.80;47.10
46754;DHT22;32500;50.620;3.400;2022-08-05T11:54:29;25.80;47.20
46754;DHT22;32500;50.620;3.400;2022-08-05T11:56:57;25.90;47.50
46754;DHT22;32500;50.620;3.400;2022-08-05T11:59:24;26.00;47.50
46754;DHT22;32500;50.620;3.400;2022-08-05T12:02:02;26.10;47.30
46754;DHT22;32500;50.620;3.400;2022-08-05T12:04:44;26.00;47.00
46754;DHT22;32500;50.620;3.400;2022-08-05T12:07:12;26.00;47.50
46754;DHT22;32500;50.620;3.400;2022-08-05T12:09:40;26.00;48.60
46754;DHT22;32500;50.620;3.400;2022-08-05T12:12:07;26.00;47.70
46754;DHT22;32500;50.620;3.400;2022-08-05T12:14:40;26.20;46.60
46754;DHT22;32500;50.620;3.400;2022-08-05T12:17:11;26.20;46.30
46754;DHT22;32500;50.620;3.400;2022-08-05T12:19:41;26.20;45.80
46754;DHT22;32500;50.620;3.400;2022-08-05T12:22:07;26.20;45.80
46754;DHT22;32500;50.620;3.400;2022-08-05T12:24:33;26.10;45.80
46754;DHT22;32500;50.620;3.400;2022-08-05T12:27:00;26.10;45.80
46754;DHT22;32500;50.620;3.400;2022-08-05T12:29:26;26.00;45.70
46754;DHT22;32500;50.620;3.400;2022-08-05T12:31:55;26.10;46.30
46754;DHT22;32500;50.620;3.400;2022-08-05T12:34:29;26.10;46.50
46754;DHT22;32500;50.620;3.400;2022-08-05T12:36:59;26.20;47.20
46754;DHT22;32500;50.620;3.400;2022-08-05T12:39:25;26.20;46.80
46754;DHT22;32500;50.620;3.400;2022-08-05T12:41:57;26.20;45.80
46754;DHT22;32500;50.620;3.400;2022-08-05T12:44:24;26.20;45.90
46754;DHT22;32500;50.620;3.400;2022-08-05T12:46:54;26.20;46.30
46754;DHT22;32500;50.620;3.400;2022-08-05T12:49:21;26.10;46.30
46754;DHT22;32500;50.620;3.400;2022-08-05T12:51:49;26.00;46.20
46754;DHT22;32500;50.620;3.400;2022-08-05T12:54:23;26.10;46.00
46754;DHT22;32500;50.620;3.400;2022-08-05T12:56:52;26.20;45.70
46754;DHT22;32500;50.620;3.400;2022-08-05T13:01:53;26.20;46.60
46754;DHT22;32500;50.620;3.400;2022-08-05T13:04:20;26.20;46.20
46754;DHT22;32500;50.620;3.400;2022-08-05T13:06:46;26.20;46.00
46754;DHT22;32500;50.620;3.400;2022-08-05T13:09:12;26.10;46.20
46754;DHT22;32500;50.620;3.400;2022-08-05T13:11:41;26.10;46.90
46754;DHT22;32500;50.620;3.400;2022-08-05T13:14:25;26.10;47.30
46754;DHT22;32500;50.620;3.400;2022-08-05T13:16:55;26.10;46.90
46754;DHT22;32500;50.620;3.400;2022-08-05T13:19:24;26.10;47.20
46754;DHT22;32500;50.620;3.400;2022-08-05T13:21:50;26.10;47.60
46754;DHT22;32500;50.620;3.400;2022-08-05T13:24:17;26.00;47.80
46754;DHT22;32500;50.620;3.400;2022-08-05T13:26:47;26.10;48.00
46754;DHT22;32500;50.620;3.400;2022-08-05T13:29:12;26.10;48.30
46754;DHT22;32500;50.620;3.400;2022-08-05T13:31:39;26.10;48.30
46754;DHT22;32500;50.620;3.400;2022-08-05T13:34:04;26.20;48.10
46754;DHT22;32500;50.620;3.400;2022-08-05T13:36:30;26.30;48.10
46754;DHT22;32500;50.620;3.400;2022-08-05T13:38:57;26.30;47.70
46754;DHT22;32500;50.620;3.400;2022-08-05T13:41:23;26.40;47.10
46754;DHT22;32500;50.620;3.400;2022-08-05T13:43:48;26.30;47.10
46754;DHT22;32500;50.620;3.400;2022-08-05T13:46:14;26.30;47.00
46754;DHT22;32500;50.620;3.400;2022-08-05T13:48:40;26.30;46.80
46754;DHT22;32500;50.620;3.400;2022-08-05T13:51:07;26.40;45.80
46754;DHT22;32500;50.620;3.400;2022-08-05T13:53:33;26.20;46.80
46754;DHT22;32500;50.620;3.400;2022-08-05T13:56:00;26.20;47.20
46754;DHT22;32500;50.620;3.400;2022-08-05T13:58:26;26.30;46.50
46754;DHT22;32500;50.620;3.400;2022-08-05T14:00:51;26.20;46.20
46754;DHT22;32500;50.620;3.400;2022-08-05T14:03:23;26.20;47.10
46754;DHT22;32500;50.620;3.400;2022-08-05T14:05:48;26.20;46.50
46754;DHT22;32500;50.620;3.400;2022-08-05T14:08:14;26.30;45.90
46754;DHT22;32500;50.620;3.400;2022-08-05T14:10:40;26.20;45.80
46754;DHT22;32500;50.620;3.400;2022-08-05T14:13:06;26.20;46.40
46754;DHT22;32500;50.620;3.400;2022-08-05T14:15:32;26.30;46.30
46754;DHT22;32500;50.620;3.400;2022-08-05T14:17:58;26.20;46.80
46754;DHT22;32500;50.620;3.400;2022-08-05T14:20:24;26.20;47.40
46754;DHT22;32500;50.620;3.400;2022-08-05T14:22:49;26.20;47.40
46754;DHT22;32500;50.620;3.400;2022-08-05T14:25:15;26.20;47.70
46754;DHT22;32500;50.620;3.400;2022-08-05T14:27:42;26.20;47.90
46754;DHT22;32500;50.620;3.400;2022-08-05T14:30:08;26.20;48.10
46754;DHT22;32500;50.620;3.400;2022-08-05T14:32:34;26.20;48.30
46754;DHT22;32500;50.620;3.400;2022-08-05T14:35:02;26.20;48.60
46754;DHT22;32500;50.620;3.400;2022-08-05T14:37:27;26.20;48.50
46754;DHT22;32500;50.620;3.400;2022-08-05T14:39:53;26.20;48.20
46754;DHT22;32500;50.620;3.400;2022-08-05T14:42:19;26.20;47.30
46754;DHT22;32500;50.620;3.400;2022-08-05T14:44:45;26.30;46.70
46754;DHT22;32500;50.620;3.400;2022-08-05T14:47:10;26.30;46.90
46754;DHT22;32500;50.620;3.400;2022-08-05T14:49:36;26.30;46.20
46754;DHT22;32500;50.620;3.400;2022-08-05T14:52:02;26.30;46.20
46754;DHT22;32500;50.620;3.400;2022-08-05T14:54:27;26.30;46.90
46754;DHT22;32500;50.620;3.400;2022-08-05T14:56:54;26.30;47.00
46754;DHT22;32500;50.620;3.400;2022-08-05T14:59:19;26.30;47.30
46754;DHT22;32500;50.620;3.400;2022-08-05T15:01:46;26.30;46.80
46754;DHT22;32500;50.620;3.400;2022-08-05T15:04:11;26.30;46.70
46754;DHT22;32500;50.620;3.400;2022-08-05T15:06:38;26.20;47.60
46754;DHT22;32500;50.620;3.400;2022-08-05T15:09:04;26.20;47.50
46754;DHT22;32500;50.620;3.400;2022-08-05T15:11:33;26.30;47.40
46754;DHT22;32500;50.620;3.400;2022-08-05T15:13:59;26.30;47.40
46754;DHT22;32500;50.620;3.400;2022-08-05T15:16:25;26.30;46.80
46754;DHT22;32500;50.620;3.400;2022-08-05T15:18:51;26.30;45.40
46754;DHT22;32500;50.620;3.400;2022-08-05T15:21:17;26.30;46.00
46754;DHT22;32500;50.620;3.400;2022-08-05T15:23:42;26.40;45.50
46754;DHT22;32500;50.620;3.400;2022-08-05T15:26:08;26.40;44.50
46754;DHT22;32500;50.620;3.400;2022-08-05T15:28:34;26.20;46.50
46754;DHT22;32500;50.620;3.400;2022-08-05T15:30:59;26.20;46.20
46754;DHT22;32500;50.620;3.400;2022-08-05T15:33:25;26.30;46.60
46754;DHT22;32500;50.620;3.400;2022-08-05T15:35:50;26.20;46.60
46754;DHT22;32500;50.620;3.400;2022-08-05T15:38:16;26.20;46.70
46754;DHT22;32500;50.620;3.400;2022-08-05T15:40:42;26.40;45.50
46754;DHT22;32500;50.620;3.400;2022-08-05T15:43:07;26.40;45.40
46754;DHT22;32500;50.620;3.400;2022-08-05T15:45:33;26.30;46.00
46754;DHT22;32500;50.620;3.400;2022-08-05T15:48:01;26.30;46.50
46754;DHT22;32500;50.620;3.400;2022-08-05T15:50:27;26.30;46.50
46754;DHT22;32500;50.620;3.400;2022-08-05T15:52:53;26.30;46.20
46754;DHT22;32500;50.620;3.400;2022-08-05T15:55:19;26.40;44.70
46754;DHT22;32500;50.620;3.400;2022-08-05T15:57:44;26.50;42.70